EGGP

Liverpool John Lennon Airport

Liverpool, United Kingdom
METAR EGGP 230120Z 15008KT 9999 BKN023 07/06 Q1013
Observed Flight Rules
Jan-23 @ 01:20 UTC (33 minutes ago) Marginal Visual Flight Rules
Wind Visibility Clouds
150° at 8 knots 10,000+ meters
  • Broken at 2,300' AGL
Temperatures Readings
Current 7°C / 45°F
Dewpoint 6°C / 43°F
Humidity 93%
Altimeter 29.91" Hg
Pressure 1013 hPa
Elevation 26
METAR EGGP 230120Z 15008KT 9999 BKN023 07/06 Q1013
Observed Flight Rules
Jan-23 @ 01:20 UTC
(33 minutes ago)
MVFR
Wind Visibility
150° at 8 knots 10,000+ meters
Clouds
  • Broken at 2,300' AGL
Temperature Dewpoint
7°C / 45°F 6°C / 43°F
Humidity Altimeter Pressure
93% 29.91" Hg 1013 hPa